JP Observations

RJOI 230355Z 27013G22KT 9999 FEW015 SCT040 SCT210 07/M02 A2998 RMK PK WND 29026/0326 RAE09 SLP151 P0000 T00721017 ROTM 230356Z 07009KT 10SM OVC050 18/11 A3000 RMK AO2 SLP146 STNPR29705 T01830106 $